sensor_id;sensor_type;location;lat;lon;timestamp;P1;durP1;ratioP1;P2;durP2;ratioP2
25249;SDS011;13201;51.148;13.738;2023-05-29T00:02:07;5.00;;;2.60;;
25249;SDS011;13201;51.148;13.738;2023-05-29T00:04:33;5.50;;;2.97;;
25249;SDS011;13201;51.148;13.738;2023-05-29T00:06:58;4.88;;;2.80;;
25249;SDS011;13201;51.148;13.738;2023-05-29T00:09:25;5.50;;;2.83;;
25249;SDS011;13201;51.148;13.738;2023-05-29T00:11:50;7.95;;;2.65;;
25249;SDS011;13201;51.148;13.738;2023-05-29T00:14:17;8.45;;;3.13;;
25249;SDS011;13201;51.148;13.738;2023-05-29T00:19:11;5.32;;;3.08;;
25249;SDS011;13201;51.148;13.738;2023-05-29T00:21:38;3.60;;;2.47;;
25249;SDS011;13201;51.148;13.738;2023-05-29T00:24:05;4.25;;;2.80;;
25249;SDS011;13201;51.148;13.738;2023-05-29T00:26:31;5.68;;;2.85;;
25249;SDS011;13201;51.148;13.738;2023-05-29T00:28:56;4.95;;;2.70;;
25249;SDS011;13201;51.148;13.738;2023-05-29T00:31:22;5.68;;;2.88;;
25249;SDS011;13201;51.148;13.738;2023-05-29T00:33:49;4.18;;;2.63;;
25249;SDS011;13201;51.148;13.738;2023-05-29T00:36:15;5.03;;;2.90;;
25249;SDS011;13201;51.148;13.738;2023-05-29T00:38:42;6.10;;;3.15;;
25249;SDS011;13201;51.148;13.738;2023-05-29T00:41:08;5.78;;;2.90;;
25249;SDS011;13201;51.148;13.738;2023-05-29T00:43:40;5.45;;;2.80;;
25249;SDS011;13201;51.148;13.738;2023-05-29T00:46:06;7.40;;;3.33;;
25249;SDS011;13201;51.148;13.738;2023-05-29T00:48:32;7.05;;;3.30;;
25249;SDS011;13201;51.148;13.738;2023-05-29T00:50:58;9.80;;;3.42;;
25249;SDS011;13201;51.148;13.738;2023-05-29T00:53:24;7.05;;;2.85;;
25249;SDS011;13201;51.148;13.738;2023-05-29T00:55:51;6.85;;;2.97;;
25249;SDS011;13201;51.148;13.738;2023-05-29T00:58:17;3.88;;;2.58;;
25249;SDS011;13201;51.148;13.738;2023-05-29T01:00:44;6.75;;;3.13;;
25249;SDS011;13201;51.148;13.738;2023-05-29T01:03:09;7.00;;;3.10;;
25249;SDS011;13201;51.148;13.738;2023-05-29T01:30:10;5.07;;;3.15;;
25249;SDS011;13201;51.148;13.738;2023-05-29T01:32:38;6.35;;;3.50;;
25249;SDS011;13201;51.148;13.738;2023-05-29T01:35:04;5.70;;;3.58;;
25249;SDS011;13201;51.148;13.738;2023-05-29T01:37:30;5.23;;;3.17;;
25249;SDS011;13201;51.148;13.738;2023-05-29T01:39:56;5.35;;;3.35;;
25249;SDS011;13201;51.148;13.738;2023-05-29T01:42:22;7.70;;;3.10;;
25249;SDS011;13201;51.148;13.738;2023-05-29T01:44:48;4.47;;;2.80;;
25249;SDS011;13201;51.148;13.738;2023-05-29T01:47:14;4.90;;;3.25;;
25249;SDS011;13201;51.148;13.738;2023-05-29T01:49:40;6.18;;;3.28;;
25249;SDS011;13201;51.148;13.738;2023-05-29T01:52:09;5.47;;;2.85;;
25249;SDS011;13201;51.148;13.738;2023-05-29T01:54:35;7.85;;;3.28;;
25249;SDS011;13201;51.148;13.738;2023-05-29T01:57:01;11.07;;;3.33;;
25249;SDS011;13201;51.148;13.738;2023-05-29T01:59:28;5.60;;;3.40;;
25249;SDS011;13201;51.148;13.738;2023-05-29T02:01:55;6.25;;;3.45;;
25249;SDS011;13201;51.148;13.738;2023-05-29T02:04:21;5.38;;;3.03;;
25249;SDS011;13201;51.148;13.738;2023-05-29T02:06:46;7.03;;;3.10;;
25249;SDS011;13201;51.148;13.738;2023-05-29T02:09:12;7.47;;;3.50;;
25249;SDS011;13201;51.148;13.738;2023-05-29T02:11:37;7.55;;;3.42;;
25249;SDS011;13201;51.148;13.738;2023-05-29T02:14:03;6.10;;;2.95;;
25249;SDS011;13201;51.148;13.738;2023-05-29T02:16:29;5.38;;;2.90;;
25249;SDS011;13201;51.148;13.738;2023-05-29T02:18:58;7.10;;;3.40;;
25249;SDS011;13201;51.148;13.738;2023-05-29T02:21:24;9.02;;;3.28;;
25249;SDS011;13201;51.148;13.738;2023-05-29T02:23:50;6.15;;;3.08;;
25249;SDS011;13201;51.148;13.738;2023-05-29T02:26:16;5.05;;;3.15;;
25249;SDS011;13201;51.148;13.738;2023-05-29T02:28:41;5.60;;;3.17;;
25249;SDS011;13201;51.148;13.738;2023-05-29T02:31:07;8.02;;;3.33;;
25249;SDS011;13201;51.148;13.738;2023-05-29T02:33:33;7.30;;;3.28;;
25249;SDS011;13201;51.148;13.738;2023-05-29T02:35:58;5.38;;;3.15;;
25249;SDS011;13201;51.148;13.738;2023-05-29T02:38:24;6.25;;;3.15;;
25249;SDS011;13201;51.148;13.738;2023-05-29T02:40:50;4.05;;;2.70;;
25249;SDS011;13201;51.148;13.738;2023-05-29T02:43:16;6.05;;;3.40;;
25249;SDS011;13201;51.148;13.738;2023-05-29T02:45:41;6.20;;;3.30;;
25249;SDS011;13201;51.148;13.738;2023-05-29T02:48:07;5.18;;;3.30;;
25249;SDS011;13201;51.148;13.738;2023-05-29T02:50:33;6.80;;;3.13;;
25249;SDS011;13201;51.148;13.738;2023-05-29T02:52:58;5.32;;;3.35;;
25249;SDS011;13201;51.148;13.738;2023-05-29T02:55:24;6.70;;;3.03;;
25249;SDS011;13201;51.148;13.738;2023-05-29T02:57:50;6.28;;;3.00;;
25249;SDS011;13201;51.148;13.738;2023-05-29T03:00:18;6.07;;;3.17;;
25249;SDS011;13201;51.148;13.738;2023-05-29T03:02:43;6.63;;;3.70;;
25249;SDS011;13201;51.148;13.738;2023-05-29T03:05:09;6.72;;;3.38;;
25249;SDS011;13201;51.148;13.738;2023-05-29T03:07:35;5.45;;;3.25;;
25249;SDS011;13201;51.148;13.738;2023-05-29T03:10:01;6.57;;;3.40;;
25249;SDS011;13201;51.148;13.738;2023-05-29T03:12:29;6.55;;;3.60;;
25249;SDS011;13201;51.148;13.738;2023-05-29T03:14:54;7.47;;;3.47;;
25249;SDS011;13201;51.148;13.738;2023-05-29T03:17:21;4.88;;;3.20;;
25249;SDS011;13201;51.148;13.738;2023-05-29T03:19:47;10.25;;;3.78;;
25249;SDS011;13201;51.148;13.738;2023-05-29T03:22:12;4.65;;;3.08;;
25249;SDS011;13201;51.148;13.738;2023-05-29T03:24:38;5.25;;;3.30;;
25249;SDS011;13201;51.148;13.738;2023-05-29T03:27:04;7.78;;;3.35;;
25249;SDS011;13201;51.148;13.738;2023-05-29T03:29:31;6.00;;;3.10;;
25249;SDS011;13201;51.148;13.738;2023-05-29T03:31:57;5.60;;;3.17;;
25249;SDS011;13201;51.148;13.738;2023-05-29T03:34:23;4.82;;;3.15;;
25249;SDS011;13201;51.148;13.738;2023-05-29T03:36:48;5.07;;;3.38;;
25249;SDS011;13201;51.148;13.738;2023-05-29T03:39:14;6.50;;;2.88;;
25249;SDS011;13201;51.148;13.738;2023-05-29T03:41:41;6.97;;;3.25;;
25249;SDS011;13201;51.148;13.738;2023-05-29T03:44:06;4.93;;;3.00;;
25249;SDS011;13201;51.148;13.738;2023-05-29T03:46:32;5.57;;;2.95;;
25249;SDS011;13201;51.148;13.738;2023-05-29T03:48:58;4.82;;;3.17;;
25249;SDS011;13201;51.148;13.738;2023-05-29T03:51:23;4.60;;;3.05;;
25249;SDS011;13201;51.148;13.738;2023-05-29T03:53:49;6.40;;;3.05;;
25249;SDS011;13201;51.148;13.738;2023-05-29T03:56:15;5.93;;;3.33;;
25249;SDS011;13201;51.148;13.738;2023-05-29T03:58:41;4.75;;;2.88;;
25249;SDS011;13201;51.148;13.738;2023-05-29T04:01:06;6.40;;;3.38;;
25249;SDS011;13201;51.148;13.738;2023-05-29T04:03:33;4.80;;;3.38;;
25249;SDS011;13201;51.148;13.738;2023-05-29T04:05:59;6.68;;;3.28;;
25249;SDS011;13201;51.148;13.738;2023-05-29T04:08:25;6.13;;;3.33;;
25249;SDS011;13201;51.148;13.738;2023-05-29T04:10:50;4.50;;;3.20;;
25249;SDS011;13201;51.148;13.738;2023-05-29T04:13:18;7.32;;;3.30;;
25249;SDS011;13201;51.148;13.738;2023-05-29T04:15:45;7.10;;;3.63;;
25249;SDS011;13201;51.148;13.738;2023-05-29T04:18:10;5.63;;;3.35;;
25249;SDS011;13201;51.148;13.738;2023-05-29T04:20:36;4.70;;;3.10;;
25249;SDS011;13201;51.148;13.738;2023-05-29T04:23:02;5.97;;;3.35;;
25249;SDS011;13201;51.148;13.738;2023-05-29T04:25:28;6.13;;;3.90;;
25249;SDS011;13201;51.148;13.738;2023-05-29T04:27:53;6.05;;;3.70;;
25249;SDS011;13201;51.148;13.738;2023-05-29T04:30:19;5.30;;;3.47;;
25249;SDS011;13201;51.148;13.738;2023-05-29T04:32:45;6.40;;;3.70;;
25249;SDS011;13201;51.148;13.738;2023-05-29T04:35:11;6.63;;;4.00;;
25249;SDS011;13201;51.148;13.738;2023-05-29T04:37:38;7.00;;;3.97;;
25249;SDS011;13201;51.148;13.738;2023-05-29T04:40:05;7.90;;;4.27;;
25249;SDS011;13201;51.148;13.738;2023-05-29T04:42:37;6.88;;;4.13;;
25249;SDS011;13201;51.148;13.738;2023-05-29T04:45:04;8.23;;;3.35;;
25249;SDS011;13201;51.148;13.738;2023-05-29T04:47:31;9.55;;;3.92;;
25249;SDS011;13201;51.148;13.738;2023-05-29T04:50:01;6.93;;;4.15;;
25249;SDS011;13201;51.148;13.738;2023-05-29T04:52:27;5.47;;;3.70;;
25249;SDS011;13201;51.148;13.738;2023-05-29T04:54:53;6.90;;;4.00;;
25249;SDS011;13201;51.148;13.738;2023-05-29T04:57:20;6.57;;;3.92;;
25249;SDS011;13201;51.148;13.738;2023-05-29T04:59:45;7.70;;;4.03;;
25249;SDS011;13201;51.148;13.738;2023-05-29T05:02:11;8.23;;;4.22;;
25249;SDS011;13201;51.148;13.738;2023-05-29T05:04:37;6.50;;;3.72;;
25249;SDS011;13201;51.148;13.738;2023-05-29T05:07:03;7.20;;;4.28;;
25249;SDS011;13201;51.148;13.738;2023-05-29T05:09:30;7.80;;;4.07;;
25249;SDS011;13201;51.148;13.738;2023-05-29T05:11:55;6.53;;;3.72;;
25249;SDS011;13201;51.148;13.738;2023-05-29T05:14:22;8.40;;;4.20;;
25249;SDS011;13201;51.148;13.738;2023-05-29T05:16:47;9.15;;;4.57;;
25249;SDS011;13201;51.148;13.738;2023-05-29T05:19:13;8.10;;;4.05;;
25249;SDS011;13201;51.148;13.738;2023-05-29T05:21:39;9.02;;;4.53;;
25249;SDS011;13201;51.148;13.738;2023-05-29T05:24:04;9.20;;;4.00;;
25249;SDS011;13201;51.148;13.738;2023-05-29T05:26:30;8.93;;;4.72;;
25249;SDS011;13201;51.148;13.738;2023-05-29T05:28:56;7.85;;;4.28;;
25249;SDS011;13201;51.148;13.738;2023-05-29T05:31:22;8.05;;;4.35;;
25249;SDS011;13201;51.148;13.738;2023-05-29T05:33:48;8.52;;;4.70;;
25249;SDS011;13201;51.148;13.738;2023-05-29T05:36:14;8.18;;;4.75;;
25249;SDS011;13201;51.148;13.738;2023-05-29T05:38:40;5.85;;;3.88;;
25249;SDS011;13201;51.148;13.738;2023-05-29T05:41:05;7.65;;;4.18;;
25249;SDS011;13201;51.148;13.738;2023-05-29T05:43:31;10.88;;;4.65;;
25249;SDS011;13201;51.148;13.738;2023-05-29T05:45:57;7.23;;;4.50;;
25249;SDS011;13201;51.148;13.738;2023-05-29T05:48:23;9.15;;;4.40;;
25249;SDS011;13201;51.148;13.738;2023-05-29T05:50:48;7.88;;;4.97;;
25249;SDS011;13201;51.148;13.738;2023-05-29T05:53:15;10.73;;;5.07;;
25249;SDS011;13201;51.148;13.738;2023-05-29T05:55:41;6.40;;;4.15;;
25249;SDS011;13201;51.148;13.738;2023-05-29T05:58:07;9.30;;;4.63;;
25249;SDS011;13201;51.148;13.738;2023-05-29T06:00:33;8.25;;;4.78;;
25249;SDS011;13201;51.148;13.738;2023-05-29T06:02:59;7.70;;;4.32;;
25249;SDS011;13201;51.148;13.738;2023-05-29T06:05:25;8.25;;;4.80;;
25249;SDS011;13201;51.148;13.738;2023-05-29T06:07:51;8.55;;;4.68;;
25249;SDS011;13201;51.148;13.738;2023-05-29T06:10:17;8.05;;;5.00;;
25249;SDS011;13201;51.148;13.738;2023-05-29T06:12:44;7.57;;;4.63;;
25249;SDS011;13201;51.148;13.738;2023-05-29T06:15:10;7.57;;;5.28;;
25249;SDS011;13201;51.148;13.738;2023-05-29T06:17:35;8.02;;;4.93;;
25249;SDS011;13201;51.148;13.738;2023-05-29T06:20:01;7.00;;;4.20;;
25249;SDS011;13201;51.148;13.738;2023-05-29T06:22:30;9.43;;;4.75;;
25249;SDS011;13201;51.148;13.738;2023-05-29T06:24:55;7.05;;;4.55;;
25249;SDS011;13201;51.148;13.738;2023-05-29T06:27:21;7.70;;;4.60;;
25249;SDS011;13201;51.148;13.738;2023-05-29T06:29:50;8.55;;;4.70;;
25249;SDS011;13201;51.148;13.738;2023-05-29T06:32:16;8.35;;;4.45;;
25249;SDS011;13201;51.148;13.738;2023-05-29T06:34:42;6.75;;;4.38;;
25249;SDS011;13201;51.148;13.738;2023-05-29T06:37:07;6.05;;;4.05;;
25249;SDS011;13201;51.148;13.738;2023-05-29T06:39:34;8.32;;;4.07;;
25249;SDS011;13201;51.148;13.738;2023-05-29T06:41:59;8.95;;;4.32;;
25249;SDS011;13201;51.148;13.738;2023-05-29T06:44:26;11.18;;;4.57;;
25249;SDS011;13201;51.148;13.738;2023-05-29T06:46:52;9.27;;;4.25;;
25249;SDS011;13201;51.148;13.738;2023-05-29T06:49:18;7.85;;;4.28;;
25249;SDS011;13201;51.148;13.738;2023-05-29T06:51:46;5.78;;;4.00;;
25249;SDS011;13201;51.148;13.738;2023-05-29T06:54:12;7.30;;;3.80;;
25249;SDS011;13201;51.148;13.738;2023-05-29T06:56:38;5.85;;;3.80;;
25249;SDS011;13201;51.148;13.738;2023-05-29T06:59:04;8.23;;;4.40;;
25249;SDS011;13201;51.148;13.738;2023-05-29T07:04:24;6.70;;;4.20;;
25249;SDS011;13201;51.148;13.738;2023-05-29T07:06:49;8.27;;;4.15;;
25249;SDS011;13201;51.148;13.738;2023-05-29T07:09:16;9.50;;;4.00;;
25249;SDS011;13201;51.148;13.738;2023-05-29T07:11:42;7.53;;;3.75;;
25249;SDS011;13201;51.148;13.738;2023-05-29T07:14:07;7.30;;;3.53;;
25249;SDS011;13201;51.148;13.738;2023-05-29T07:16:33;6.60;;;3.40;;
25249;SDS011;13201;51.148;13.738;2023-05-29T07:18:59;5.43;;;3.20;;
25249;SDS011;13201;51.148;13.738;2023-05-29T07:21:25;6.78;;;3.60;;
25249;SDS011;13201;51.148;13.738;2023-05-29T07:23:50;6.53;;;3.63;;
25249;SDS011;13201;51.148;13.738;2023-05-29T07:26:16;4.43;;;3.05;;
25249;SDS011;13201;51.148;13.738;2023-05-29T07:28:42;7.60;;;3.80;;
25249;SDS011;13201;51.148;13.738;2023-05-29T07:31:07;5.65;;;3.35;;
25249;SDS011;13201;51.148;13.738;2023-05-29T07:33:34;7.63;;;3.63;;
25249;SDS011;13201;51.148;13.738;2023-05-29T07:36:00;6.93;;;3.92;;
25249;SDS011;13201;51.148;13.738;2023-05-29T07:38:25;6.75;;;3.83;;
25249;SDS011;13201;51.148;13.738;2023-05-29T07:40:51;5.80;;;3.17;;
25249;SDS011;13201;51.148;13.738;2023-05-29T07:43:17;4.70;;;2.88;;
25249;SDS011;13201;51.148;13.738;2023-05-29T07:45:42;10.10;;;3.70;;
25249;SDS011;13201;51.148;13.738;2023-05-29T07:48:08;6.95;;;3.45;;
25249;SDS011;13201;51.148;13.738;2023-05-29T07:50:34;9.80;;;3.25;;
25249;SDS011;13201;51.148;13.738;2023-05-29T07:53:00;6.07;;;2.83;;
25249;SDS011;13201;51.148;13.738;2023-05-29T07:55:25;5.35;;;3.22;;
25249;SDS011;13201;51.148;13.738;2023-05-29T07:57:51;11.13;;;3.35;;
25249;SDS011;13201;51.148;13.738;2023-05-29T08:00:17;5.00;;;2.95;;
25249;SDS011;13201;51.148;13.738;2023-05-29T08:02:42;5.10;;;3.00;;
25249;SDS011;13201;51.148;13.738;2023-05-29T08:05:08;8.52;;;2.95;;
25249;SDS011;13201;51.148;13.738;2023-05-29T08:07:34;4.00;;;3.03;;
25249;SDS011;13201;51.148;13.738;2023-05-29T08:12:27;5.93;;;3.50;;
25249;SDS011;13201;51.148;13.738;2023-05-29T08:14:52;4.57;;;3.10;;
25249;SDS011;13201;51.148;13.738;2023-05-29T08:17:18;4.57;;;2.90;;
25249;SDS011;13201;51.148;13.738;2023-05-29T08:19:44;8.30;;;3.40;;
25249;SDS011;13201;51.148;13.738;2023-05-29T08:22:12;5.68;;;3.53;;
25249;SDS011;13201;51.148;13.738;2023-05-29T08:24:39;5.97;;;2.85;;
25249;SDS011;13201;51.148;13.738;2023-05-29T08:27:04;9.40;;;3.00;;
25249;SDS011;13201;51.148;13.738;2023-05-29T08:29:30;4.28;;;2.90;;
25249;SDS011;13201;51.148;13.738;2023-05-29T08:31:56;4.30;;;2.53;;
25249;SDS011;13201;51.148;13.738;2023-05-29T08:34:21;3.70;;;2.53;;
25249;SDS011;13201;51.148;13.738;2023-05-29T08:36:47;5.82;;;2.53;;
25249;SDS011;13201;51.148;13.738;2023-05-29T08:39:13;4.83;;;2.60;;
25249;SDS011;13201;51.148;13.738;2023-05-29T08:44:35;5.88;;;2.70;;
25249;SDS011;13201;51.148;13.738;2023-05-29T08:47:04;5.90;;;2.50;;
25249;SDS011;13201;51.148;13.738;2023-05-29T08:49:37;5.78;;;2.28;;
25249;SDS011;13201;51.148;13.738;2023-05-29T08:52:15;5.90;;;2.20;;
25249;SDS011;13201;51.148;13.738;2023-05-29T08:54:42;5.97;;;2.38;;
25249;SDS011;13201;51.148;13.738;2023-05-29T08:57:08;4.13;;;2.25;;
25249;SDS011;13201;51.148;13.738;2023-05-29T08:59:36;5.88;;;2.88;;
25249;SDS011;13201;51.148;13.738;2023-05-29T09:02:04;3.47;;;2.30;;
25249;SDS011;13201;51.148;13.738;2023-05-29T09:04:30;6.07;;;2.17;;
25249;SDS011;13201;51.148;13.738;2023-05-29T09:06:57;2.70;;;1.88;;
25249;SDS011;13201;51.148;13.738;2023-05-29T09:09:24;3.80;;;2.00;;
25249;SDS011;13201;51.148;13.738;2023-05-29T09:11:52;3.97;;;2.30;;
25249;SDS011;13201;51.148;13.738;2023-05-29T09:17:07;4.78;;;2.15;;
25249;SDS011;13201;51.148;13.738;2023-05-29T09:19:35;4.47;;;2.10;;
25249;SDS011;13201;51.148;13.738;2023-05-29T09:22:02;5.18;;;2.33;;
25249;SDS011;13201;51.148;13.738;2023-05-29T09:24:29;7.03;;;1.90;;
25249;SDS011;13201;51.148;13.738;2023-05-29T09:26:58;6.15;;;2.40;;
25249;SDS011;13201;51.148;13.738;2023-05-29T09:29:25;4.97;;;2.35;;
25249;SDS011;13201;51.148;13.738;2023-05-29T09:31:51;5.73;;;2.10;;
25249;SDS011;13201;51.148;13.738;2023-05-29T09:34:17;4.90;;;2.90;;
25249;SDS011;13201;51.148;13.738;2023-05-29T09:36:43;7.40;;;2.30;;
25249;SDS011;13201;51.148;13.738;2023-05-29T09:39:08;4.57;;;2.38;;
25249;SDS011;13201;51.148;13.738;2023-05-29T09:41:42;6.78;;;2.40;;
25249;SDS011;13201;51.148;13.738;2023-05-29T09:44:11;4.40;;;2.83;;
25249;SDS011;13201;51.148;13.738;2023-05-29T09:46:39;4.03;;;2.38;;
25249;SDS011;13201;51.148;13.738;2023-05-29T09:49:12;6.20;;;2.50;;
25249;SDS011;13201;51.148;13.738;2023-05-29T09:51:38;6.20;;;2.40;;
25249;SDS011;13201;51.148;13.738;2023-05-29T09:54:14;10.23;;;3.07;;
25249;SDS011;13201;51.148;13.738;2023-05-29T09:56:41;5.38;;;2.13;;
25249;SDS011;13201;51.148;13.738;2023-05-29T09:59:11;8.75;;;3.22;;
25249;SDS011;13201;51.148;13.738;2023-05-29T10:01:41;5.57;;;2.13;;
25249;SDS011;13201;51.148;13.738;2023-05-29T10:04:09;3.97;;;2.30;;
25249;SDS011;13201;51.148;13.738;2023-05-29T10:06:36;3.97;;;2.10;;
25249;SDS011;13201;51.148;13.738;2023-05-29T10:09:05;4.65;;;2.13;;
25249;SDS011;13201;51.148;13.738;2023-05-29T10:11:33;4.68;;;2.58;;
25249;SDS011;13201;51.148;13.738;2023-05-29T10:14:00;5.70;;;2.30;;
25249;SDS011;13201;51.148;13.738;2023-05-29T10:16:28;5.13;;;2.17;;
25249;SDS011;13201;51.148;13.738;2023-05-29T10:18:58;4.70;;;2.10;;
25249;SDS011;13201;51.148;13.738;2023-05-29T10:21:27;7.55;;;1.90;;
25249;SDS011;13201;51.148;13.738;2023-05-29T10:23:53;7.75;;;2.63;;
25249;SDS011;13201;51.148;13.738;2023-05-29T10:26:21;4.03;;;2.35;;
25249;SDS011;13201;51.148;13.738;2023-05-29T10:37:31;6.28;;;2.40;;
25249;SDS011;13201;51.148;13.738;2023-05-29T10:40:16;4.47;;;2.20;;
25249;SDS011;13201;51.148;13.738;2023-05-29T10:42:49;4.03;;;2.13;;
25249;SDS011;13201;51.148;13.738;2023-05-29T10:50:42;3.42;;;2.15;;
25249;SDS011;13201;51.148;13.738;2023-05-29T10:53:08;4.27;;;2.57;;
25249;SDS011;13201;51.148;13.738;2023-05-29T10:55:38;5.88;;;2.35;;
25249;SDS011;13201;51.148;13.738;2023-05-29T10:58:08;3.92;;;2.20;;
25249;SDS011;13201;51.148;13.738;2023-05-29T11:00:40;6.40;;;2.45;;
25249;SDS011;13201;51.148;13.738;2023-05-29T11:03:07;6.18;;;2.30;;
25249;SDS011;13201;51.148;13.738;2023-05-29T11:05:33;5.18;;;2.28;;
25249;SDS011;13201;51.148;13.738;2023-05-29T11:08:00;4.90;;;2.60;;
25249;SDS011;13201;51.148;13.738;2023-05-29T11:10:55;6.25;;;2.33;;
25249;SDS011;13201;51.148;13.738;2023-05-29T11:13:26;5.53;;;2.65;;
25249;SDS011;13201;51.148;13.738;2023-05-29T11:18:45;4.05;;;2.20;;
25249;SDS011;13201;51.148;13.738;2023-05-29T11:21:15;6.85;;;2.35;;
25249;SDS011;13201;51.148;13.738;2023-05-29T11:23:44;7.78;;;2.33;;
25249;SDS011;13201;51.148;13.738;2023-05-29T11:26:12;4.63;;;2.20;;
25249;SDS011;13201;51.148;13.738;2023-05-29T11:28:39;7.85;;;2.58;;
25249;SDS011;13201;51.148;13.738;2023-05-29T11:31:07;3.53;;;2.15;;
25249;SDS011;13201;51.148;13.738;2023-05-29T11:33:35;6.97;;;2.30;;
25249;SDS011;13201;51.148;13.738;2023-05-29T11:36:06;6.05;;;2.20;;
25249;SDS011;13201;51.148;13.738;2023-05-29T11:38:34;6.45;;;2.22;;
25249;SDS011;13201;51.148;13.738;2023-05-29T11:41:01;8.15;;;2.40;;
25249;SDS011;13201;51.148;13.738;2023-05-29T11:43:28;5.43;;;2.20;;
25249;SDS011;13201;51.148;13.738;2023-05-29T11:45:54;6.07;;;2.50;;
25249;SDS011;13201;51.148;13.738;2023-05-29T11:48:19;5.68;;;2.40;;
25249;SDS011;13201;51.148;13.738;2023-05-29T11:53:12;5.17;;;2.50;;
25249;SDS011;13201;51.148;13.738;2023-05-29T11:55:37;5.30;;;2.30;;
25249;SDS011;13201;51.148;13.738;2023-05-29T11:58:04;4.60;;;2.50;;
25249;SDS011;13201;51.148;13.738;2023-05-29T12:00:33;5.43;;;2.35;;
25249;SDS011;13201;51.148;13.738;2023-05-29T12:03:01;5.95;;;2.25;;
25249;SDS011;13201;51.148;13.738;2023-05-29T12:05:32;5.90;;;2.33;;
25249;SDS011;13201;51.148;13.738;2023-05-29T12:08:09;9.57;;;2.80;;
25249;SDS011;13201;51.148;13.738;2023-05-29T12:10:35;4.10;;;2.63;;
25249;SDS011;13201;51.148;13.738;2023-05-29T12:13:00;6.53;;;2.47;;
25249;SDS011;13201;51.148;13.738;2023-05-29T12:15:26;4.10;;;2.30;;
25249;SDS011;13201;51.148;13.738;2023-05-29T12:17:53;3.20;;;2.20;;
25249;SDS011;13201;51.148;13.738;2023-05-29T12:20:19;5.40;;;2.20;;
25249;SDS011;13201;51.148;13.738;2023-05-29T12:22:49;7.95;;;2.40;;
25249;SDS011;13201;51.148;13.738;2023-05-29T12:25:15;8.48;;;2.40;;
25249;SDS011;13201;51.148;13.738;2023-05-29T12:27:43;7.03;;;2.20;;
25249;SDS011;13201;51.148;13.738;2023-05-29T12:30:29;4.35;;;2.10;;
25249;SDS011;13201;51.148;13.738;2023-05-29T12:32:55;4.07;;;2.40;;
25249;SDS011;13201;51.148;13.738;2023-05-29T12:35:25;5.63;;;2.50;;
25249;SDS011;13201;51.148;13.738;2023-05-29T12:37:56;6.57;;;2.50;;
25249;SDS011;13201;51.148;13.738;2023-05-29T12:40:24;6.18;;;2.58;;
25249;SDS011;13201;51.148;13.738;2023-05-29T12:42:57;3.38;;;2.22;;
25249;SDS011;13201;51.148;13.738;2023-05-29T12:45:26;5.65;;;2.42;;
25249;SDS011;13201;51.148;13.738;2023-05-29T12:47:56;6.40;;;2.47;;
25249;SDS011;13201;51.148;13.738;2023-05-29T12:50:25;5.43;;;2.47;;
25249;SDS011;13201;51.148;13.738;2023-05-29T12:53:01;4.55;;;2.47;;
25249;SDS011;13201;51.148;13.738;2023-05-29T12:55:30;8.27;;;2.65;;
25249;SDS011;13201;51.148;13.738;2023-05-29T12:58:06;3.92;;;2.25;;
25249;SDS011;13201;51.148;13.738;2023-05-29T13:00:34;8.18;;;2.60;;
25249;SDS011;13201;51.148;13.738;2023-05-29T13:03:01;5.38;;;2.65;;
25249;SDS011;13201;51.148;13.738;2023-05-29T13:05:26;5.03;;;2.87;;
25249;SDS011;13201;51.148;13.738;2023-05-29T13:07:52;5.75;;;2.65;;
25249;SDS011;13201;51.148;13.738;2023-05-29T13:10:19;4.28;;;2.20;;
25249;SDS011;13201;51.148;13.738;2023-05-29T13:12:45;11.80;;;3.33;;
25249;SDS011;13201;51.148;13.738;2023-05-29T13:15:12;4.10;;;2.30;;
25249;SDS011;13201;51.148;13.738;2023-05-29T13:17:39;16.40;;;2.70;;
25249;SDS011;13201;51.148;13.738;2023-05-29T13:20:07;11.63;;;3.00;;
25249;SDS011;13201;51.148;13.738;2023-05-29T13:22:37;7.35;;;2.67;;
25249;SDS011;13201;51.148;13.738;2023-05-29T13:25:04;6.05;;;2.78;;
25249;SDS011;13201;51.148;13.738;2023-05-29T13:27:31;5.40;;;2.70;;
25249;SDS011;13201;51.148;13.738;2023-05-29T13:30:02;10.23;;;2.97;;
25249;SDS011;13201;51.148;13.738;2023-05-29T13:32:28;5.47;;;2.60;;
25249;SDS011;13201;51.148;13.738;2023-05-29T13:34:54;16.13;;;3.15;;
25249;SDS011;13201;51.148;13.738;2023-05-29T13:37:20;6.43;;;2.70;;
25249;SDS011;13201;51.148;13.738;2023-05-29T13:39:46;6.77;;;2.63;;
25249;SDS011;13201;51.148;13.738;2023-05-29T13:42:12;11.43;;;2.70;;
25249;SDS011;13201;51.148;13.738;2023-05-29T13:44:38;6.40;;;2.53;;
25249;SDS011;13201;51.148;13.738;2023-05-29T13:47:04;7.23;;;2.53;;
25249;SDS011;13201;51.148;13.738;2023-05-29T13:49:31;15.85;;;2.92;;
25249;SDS011;13201;51.148;13.738;2023-05-29T13:51:57;6.50;;;2.80;;
25249;SDS011;13201;51.148;13.738;2023-05-29T13:54:22;4.33;;;2.70;;
25249;SDS011;13201;51.148;13.738;2023-05-29T13:56:48;12.67;;;2.90;;
25249;SDS011;13201;51.148;13.738;2023-05-29T13:59:14;4.50;;;2.77;;
25249;SDS011;13201;51.148;13.738;2023-05-29T14:01:40;6.27;;;2.70;;
25249;SDS011;13201;51.148;13.738;2023-05-29T14:04:05;4.33;;;2.50;;
25249;SDS011;13201;51.148;13.738;2023-05-29T14:06:32;5.63;;;2.37;;
25249;SDS011;13201;51.148;13.738;2023-05-29T14:09:02;6.32;;;2.50;;
25249;SDS011;13201;51.148;13.738;2023-05-29T14:13:54;4.10;;;2.50;;
25249;SDS011;13201;51.148;13.738;2023-05-29T14:16:19;12.07;;;2.70;;
25249;SDS011;13201;51.148;13.738;2023-05-29T14:18:45;3.93;;;2.60;;
25249;SDS011;13201;51.148;13.738;2023-05-29T14:21:13;4.28;;;2.42;;
25249;SDS011;13201;51.148;13.738;2023-05-29T14:23:39;4.57;;;2.40;;
25249;SDS011;13201;51.148;13.738;2023-05-29T14:26:04;5.80;;;2.83;;
25249;SDS011;13201;51.148;13.738;2023-05-29T14:28:30;5.20;;;2.83;;
25249;SDS011;13201;51.148;13.738;2023-05-29T14:30:56;4.53;;;2.50;;
25249;SDS011;13201;51.148;13.738;2023-05-29T14:33:22;6.10;;;2.70;;
25249;SDS011;13201;51.148;13.738;2023-05-29T14:35:47;5.23;;;2.70;;
25249;SDS011;13201;51.148;13.738;2023-05-29T14:38:13;6.13;;;2.80;;
25249;SDS011;13201;51.148;13.738;2023-05-29T14:40:39;4.47;;;2.47;;
25249;SDS011;13201;51.148;13.738;2023-05-29T14:43:04;6.67;;;2.47;;
25249;SDS011;13201;51.148;13.738;2023-05-29T14:45:31;6.10;;;2.67;;
25249;SDS011;13201;51.148;13.738;2023-05-29T14:47:56;6.27;;;2.60;;
25249;SDS011;13201;51.148;13.738;2023-05-29T14:50:22;8.63;;;2.50;;
25249;SDS011;13201;51.148;13.738;2023-05-29T14:52:48;4.13;;;2.80;;
25249;SDS011;13201;51.148;13.738;2023-05-29T14:55:13;5.90;;;2.97;;
25249;SDS011;13201;51.148;13.738;2023-05-29T14:57:42;6.18;;;3.30;;
25249;SDS011;13201;51.148;13.738;2023-05-29T15:00:07;4.23;;;2.53;;
25249;SDS011;13201;51.148;13.738;2023-05-29T15:02:33;6.28;;;2.75;;
25249;SDS011;13201;51.148;13.738;2023-05-29T15:04:59;9.83;;;4.10;;
25249;SDS011;13201;51.148;13.738;2023-05-29T15:07:25;3.93;;;2.70;;
25249;SDS011;13201;51.148;13.738;2023-05-29T15:09:51;5.53;;;2.90;;
25249;SDS011;13201;51.148;13.738;2023-05-29T15:12:17;5.63;;;2.73;;
25249;SDS011;13201;51.148;13.738;2023-05-29T15:14:42;6.87;;;2.97;;
25249;SDS011;13201;51.148;13.738;2023-05-29T15:17:08;5.77;;;2.83;;
25249;SDS011;13201;51.148;13.738;2023-05-29T15:19:34;4.27;;;2.60;;
25249;SDS011;13201;51.148;13.738;2023-05-29T15:21:59;7.13;;;2.70;;
25249;SDS011;13201;51.148;13.738;2023-05-29T15:24:25;4.53;;;2.40;;
25249;SDS011;13201;51.148;13.738;2023-05-29T15:26:51;5.93;;;2.80;;
25249;SDS011;13201;51.148;13.738;2023-05-29T15:29:17;5.70;;;2.83;;
25249;SDS011;13201;51.148;13.738;2023-05-29T15:31:43;6.90;;;2.63;;